Domov               UVHVVR             MKGP            O straneh              
ZDRAVSTVENO VARSTVO RASTLIN
  MREŽA AGROMET. POSTAJ
 ► PROGNOSTIČNA OBVESTILA
AGROMETEOROLOŠKI PODATKI -
ARSO
OBVLADOVANJE TVEGANJ ZARADI
NEUGODNIH VREMENSKIH RAZMER
  ► NARAVNE NESREČE
  ► SUŠA/MOČA
  ► NAMAKANJE
  ► ŽLED (gozdarstvo)
KARTOGRAFSKI PRIKAZI
SPLETNE POVEZAVE
PROJEKTI IN PUBLIKACIJE

AGROMETEOROLOŠKA MREŽA: VREMENSKE POSTAJE IN FENOLOŠKA OPAZOVANJA

Pregled podatkov za lokacijo Kostanjevica na Krki, meteorološka postaja 855712

Pregled senzorjev na lokaciji

ID Ime Zadnja
vrednost
Datum
zadnje
spremembe
Tip
senzorja
3850 Temperatura 2 m (°C) 14,18 °C 12.12.2017 01:00 50YA
3851 Relativna vlaga 2 m (% RH) 61,78 % RH 12.12.2017 01:00 50YA
3852 Omočenost lista (U) 0 U 12.12.2017 01:00 A730WET
3853 Padavine (mm) 0 mm 12.12.2017 01:00 Rain-O-Matic

Pregled podatkov zadnjih 24 ur

Zap.
št.
Datum in čas Kostanjevica na Krki
Omočenost
lista
Padavine Relativna
vlaga
2
m
Temperatura
2
m
0 12.12.2017 01:00 0 0 61,78 14,18
1 12.12.2017 00:30 0 0 58,87 14,79
2 12.12.2017 00:00 0 0 58,31 14,75
3 11.12.2017 23:30 0 0 56,07 15,27
4 11.12.2017 23:00 0 0 52,7 16,22
5 11.12.2017 22:30 0 0 54,08 15,81
6 11.12.2017 22:00 0 0,2 53,66 15,87
7 11.12.2017 21:30 0 0 54,2 15,68
8 11.12.2017 21:00 0 0 56,13 15,28
9 11.12.2017 20:30 0 0 56,2 15,4
10 11.12.2017 20:00 0 0 60,13 14,31
11 11.12.2017 19:30 0 0 58,13 14,89
12 11.12.2017 19:00 0 0 58,86 14,84
13 11.12.2017 18:30 0 0 66,15 13,27
14 11.12.2017 18:00 0 0 66,78 13,33
15 11.12.2017 17:30 0 0 66,91 13,37
16 11.12.2017 17:00 0 0 60,47 15,01
17 11.12.2017 16:30 0 0 62,42 14,85
18 11.12.2017 16:00 0 0 59,61 15,51
19 11.12.2017 15:30 0 0 59,93 15,53
20 11.12.2017 15:00 0 0 59,87 15,64
21 11.12.2017 14:30 0 0 60,54 15,64
22 11.12.2017 14:00 0 0 65,28 14,58
23 11.12.2017 13:30 0 0 63,74 15,05
24 11.12.2017 13:00 0 0 63,3 14,97
25 11.12.2017 12:30 0 0 69,21 13,4
26 11.12.2017 12:00 0 0 74,04 11,93
27 11.12.2017 11:30 0 0,2 72,66 12,12
28 11.12.2017 11:00 0 0,4 87,37 6,84
29 11.12.2017 10:30 0 0,4 93,82 4,08
30 11.12.2017 10:00 0 0,6 96,6 3,1
31 11.12.2017 09:30 1 0,2 99,23 2,46
32 11.12.2017 09:00 2 0,2 100 1,91
33 11.12.2017 08:30 2 0,2 100 1,26
34 11.12.2017 08:00 2 0 100 1,12
35 11.12.2017 07:30 2 0 100 0,82
36 11.12.2017 07:00 2 0 100 0,57
37 11.12.2017 06:30 2 0 100 0,32
38 11.12.2017 06:00 2 0 100 0,26
39 11.12.2017 05:30 1 0 100 0,21
40 11.12.2017 05:00 1 0 100 0,37
41 11.12.2017 04:30 1 0 100 0,42
42 11.12.2017 04:00 1 0 100 0,47
43 11.12.2017 03:30 1 0 100 0,7
44 11.12.2017 03:00 0 0 100 0,85
45 11.12.2017 02:30 0 0,2 100 0,92
46 11.12.2017 02:00 0 0 100 0,98
© 2011 Ministrstvo za kmetijstvo, gozdarstvo in prehrano. Vse pravice pridržane.